Time;durP1;ratioP1;P1;durP2;ratioP2;P2;SDS_P1;SDS_P2;PMS_P1;PMS_P2;Temp;Humidity;BMP_temperature;BMP_pressure;BME280_temperature;BME280_humidity;BME280_pressure;Samples;Min_cycle;Max_cycle;Signal;HPM_P1;HPM_P2
2023/01/15 00:00:58;;;;;;;4.65;2.20;;;;;;;8.71;51.74;99192.03;5058926;27;96811;-78
2023/01/15 00:03:24;;;;;;;4.68;2.22;;;;;;;8.66;51.76;99201.00;5069823;27;97324;-78
2023/01/15 00:05:49;;;;;;;7.28;2.15;;;;;;;8.52;52.02;99183.28;5064601;27;97323;-78
2023/01/15 00:08:15;;;;;;;5.05;1.70;;;;;;;8.60;51.76;99186.41;5072325;27;97084;-78
2023/01/15 00:10:40;;;;;;;4.43;2.17;;;;;;;8.48;52.51;99158.19;5072251;27;96784;-78
2023/01/15 00:13:06;;;;;;;3.85;1.77;;;;;;;8.70;52.09;99190.34;5051358;27;98680;-78
2023/01/15 00:15:31;;;;;;;4.18;1.88;;;;;;;8.63;51.92;99156.66;5068457;27;97606;-78
2023/01/15 00:17:57;;;;;;;4.55;1.95;;;;;;;8.70;52.30;99161.56;5051919;27;97504;-78
2023/01/15 00:20:23;;;;;;;2.80;1.83;;;;;;;8.65;52.33;99162.69;5067051;27;97183;-78
2023/01/15 00:22:48;;;;;;;7.25;2.25;;;;;;;8.67;52.49;99150.34;5069210;27;97529;-78
2023/01/15 00:27:58;;;;;;;7.05;2.22;;;;;;;8.72;52.76;99166.69;5060578;27;97077;-78
2023/01/15 00:30:23;;;;;;;3.97;2.10;;;;;;;8.64;53.19;99159.22;5061063;27;97157;-78
2023/01/15 00:32:49;;;;;;;3.72;1.80;;;;;;;8.67;53.21;99164.31;5056611;27;98462;-78
2023/01/15 00:35:24;;;;;;;3.47;1.75;;;;;;;8.73;53.66;99171.88;5030420;27;101296;-78
2023/01/15 00:37:50;;;;;;;3.70;1.77;;;;;;;8.54;53.72;99147.44;5054675;27;97218;-78
2023/01/15 00:40:18;;;;;;;5.05;2.08;;;;;;;8.71;53.76;99167.63;5049111;27;96745;-78
2023/01/15 00:42:43;;;;;;;3.45;2.05;;;;;;;8.72;54.23;99178.00;5033722;27;101511;-78
2023/01/15 00:45:10;;;;;;;3.17;1.83;;;;;;;8.71;54.29;99178.09;5030064;27;101559;-78
2023/01/15 00:47:40;;;;;;;7.43;2.50;;;;;;;8.69;54.66;99162.44;5049239;27;97170;-78
2023/01/15 00:50:11;;;;;;;5.13;2.30;;;;;;;8.77;54.77;99156.88;5026054;27;97305;-78
2023/01/15 00:52:37;;;;;;;5.77;1.97;;;;;;;8.73;55.59;99147.50;5065490;27;98439;-78
2023/01/15 00:55:04;;;;;;;4.90;2.30;;;;;;;8.72;55.73;99143.16;5033571;27;101145;-78
2023/01/15 00:57:30;;;;;;;4.15;2.42;;;;;;;8.68;56.37;99134.59;5061639;27;97378;-79
2023/01/15 00:59:56;;;;;;;4.47;2.40;;;;;;;8.67;56.22;99152.97;5043825;27;97113;-78
2023/01/15 01:02:21;;;;;;;5.00;2.28;;;;;;;8.64;57.22;99153.97;5034561;27;99089;-78
2023/01/15 01:04:47;;;;;;;6.13;2.20;;;;;;;8.58;57.10;99128.94;5009847;27;101650;-78
2023/01/15 01:07:14;;;;;;;4.88;1.98;;;;;;;8.60;57.15;99126.25;4995610;28;96775;-78
2023/01/15 01:09:40;;;;;;;7.28;2.50;;;;;;;8.63;57.50;99107.78;5010577;27;97329;-78
2023/01/15 01:12:06;;;;;;;4.50;2.42;;;;;;;8.64;57.52;99113.88;5015277;27;100855;-78
2023/01/15 01:14:32;;;;;;;4.25;2.35;;;;;;;8.63;57.93;99117.41;4999131;27;101259;-78
2023/01/15 01:16:57;;;;;;;10.10;2.30;;;;;;;8.60;57.93;99100.94;5016970;27;96811;-79
2023/01/15 01:19:24;;;;;;;7.68;2.38;;;;;;;8.55;58.47;99105.53;5032275;27;96913;-78
2023/01/15 01:21:51;;;;;;;4.10;2.30;;;;;;;8.63;58.76;99109.56;4989863;27;101521;-78
2023/01/15 01:24:21;;;;;;;7.00;2.35;;;;;;;8.67;58.89;99113.72;5010769;27;101803;-78
2023/01/15 01:26:47;;;;;;;5.65;2.38;;;;;;;8.61;58.72;99113.09;5015816;27;97185;-78
2023/01/15 01:29:15;;;;;;;4.72;2.50;;;;;;;8.54;59.10;99105.59;5009158;27;96914;-78
2023/01/15 01:31:41;;;;;;;5.40;2.30;;;;;;;8.55;59.36;99105.53;5023539;28;101011;-79
2023/01/15 01:34:07;;;;;;;4.22;2.10;;;;;;;8.57;59.00;99102.84;5016578;27;101054;-78
2023/01/15 01:36:38;;;;;;;3.72;2.40;;;;;;;8.57;59.74;99111.53;5015927;27;97223;-78
2023/01/15 01:39:05;;;;;;;4.72;2.65;;;;;;;8.58;59.92;99102.78;5021011;27;98343;-78
2023/01/15 01:41:32;;;;;;;4.05;2.25;;;;;;;8.57;60.02;99087.16;5011565;27;97643;-78
2023/01/15 01:44:03;;;;;;;5.18;2.45;;;;;;;8.49;59.97;99063.09;5016535;27;100831;-78
2023/01/15 01:46:31;;;;;;;3.13;2.08;;;;;;;8.59;60.31;99080.09;5014927;27;97104;-79
2023/01/15 01:49:01;;;;;;;5.18;2.53;;;;;;;8.55;60.01;99073.28;4996300;28;96899;-78
2023/01/15 01:51:33;;;;;;;6.28;2.28;;;;;;;8.48;60.57;99064.88;5011508;27;101613;-78
2023/01/15 01:53:59;;;;;;;;;;;;;;;8.50;60.43;99062.19;5006672;27;98577;-78
2023/01/15 01:56:24;;;;;;;4.72;2.50;;;;;;;8.56;60.55;99057.53;5012670;27;97248;-78
2023/01/15 01:58:52;;;;;;;4.47;1.90;;;;;;;8.51;60.62;99058.66;5004028;27;97262;-78
2023/01/15 02:01:18;;;;;;;4.00;2.28;;;;;;;8.53;60.70;99059.44;4998970;27;101132;-78
2023/01/15 02:03:45;;;;;;;4.72;2.28;;;;;;;8.55;60.83;99054.97;5016010;27;98587;-78
2023/01/15 02:06:12;;;;;;;8.18;2.53;;;;;;;8.58;60.98;99055.69;5033551;27;97322;-78
2023/01/15 02:08:38;;;;;;;3.45;2.03;;;;;;;8.57;61.09;99061.00;5013897;27;98036;-78
2023/01/15 02:11:05;;;;;;;3.97;2.08;;;;;;;8.49;61.33;99026.47;5015652;27;98978;-78
2023/01/15 02:13:40;;;;;;;5.10;2.20;;;;;;;8.47;61.84;99018.72;4996464;27;100510;-78
2023/01/15 02:16:14;;;;;;;4.25;2.08;;;;;;;8.57;61.68;99034.84;5010293;27;97298;-78
2023/01/15 02:19:25;;;;;;;3.90;2.45;;;;;;;8.55;62.41;99040.16;5015901;27;96754;-78
2023/01/15 02:21:57;;;;;;;3.13;1.88;;;;;;;8.56;62.40;99041.00;4990238;27;101827;-77
2023/01/15 02:25:25;;;;;;;3.95;2.25;;;;;;;8.54;62.46;99035.81;4998930;27;101943;-78
2023/01/15 02:28:15;;;;;;;3.00;2.00;;;;;;;8.56;62.65;99028.75;4975216;27;97246;-78
2023/01/15 02:30:43;;;;;;;4.40;1.80;;;;;;;8.60;63.18;99026.84;5011670;27;96866;-78
2023/01/15 02:33:14;;;;;;;5.72;2.10;;;;;;;8.60;63.10;99006.75;5016118;27;100846;-79
2023/01/15 02:35:44;;;;;;;3.53;1.67;;;;;;;8.61;63.59;99015.47;4998015;27;101628;-78
2023/01/15 02:38:16;;;;;;;3.78;1.80;;;;;;;8.53;63.76;98994.91;5015804;27;97372;-78
2023/01/15 02:40:46;;;;;;;3.92;1.88;;;;;;;8.60;64.00;99009.38;5015513;27;97004;-79
2023/01/15 02:43:13;;;;;;;2.78;1.88;;;;;;;8.67;63.50;99003.84;5012457;27;101237;-78
2023/01/15 02:45:41;;;;;;;2.55;1.80;;;;;;;8.56;63.74;98991.28;5027090;28;99950;-78
2023/01/15 02:48:15;;;;;;;2.65;1.63;;;;;;;8.64;63.77;99001.38;5016313;27;97182;-78
2023/01/15 02:50:49;;;;;;;2.45;1.52;;;;;;;8.70;63.86;99022.06;5001322;28;96784;-78
2023/01/15 02:53:22;;;;;;;2.72;1.70;;;;;;;8.68;64.39;99013.41;5014490;27;101602;-78
2023/01/15 02:55:49;;;;;;;;;;;;;;;8.65;64.39;99011.78;5010744;27;101674;-78
2023/01/15 02:58:22;;;;;;;3.17;1.80;;;;;;;8.70;64.66;99014.19;4999788;27;96772;-78
2023/01/15 03:00:52;;;;;;;3.03;1.80;;;;;;;8.60;64.55;98992.84;5015088;27;97233;-78
2023/01/15 03:03:45;;;;;;;2.40;1.70;;;;;;;8.67;64.92;98996.00;5011082;27;101383;-78
2023/01/15 03:06:42;;;;;;;4.25;1.45;;;;;;;8.53;65.77;98981.81;5048506;27;100962;-78
2023/01/15 03:09:08;;;;;;;3.13;1.70;;;;;;;8.53;65.84;98983.59;5053034;27;97409;-78
2023/01/15 03:11:37;;;;;;;2.17;1.48;;;;;;;8.61;65.88;98984.09;5039743;27;97461;-78
2023/01/15 03:14:08;;;;;;;3.75;1.55;;;;;;;8.65;65.93;98969.94;5044541;27;101957;-78
2023/01/15 03:16:39;;;;;;;1.88;1.38;;;;;;;8.64;65.98;98959.53;5046583;27;99761;-79
2023/01/15 03:19:23;;;;;;;2.88;1.30;;;;;;;8.62;65.65;98954.38;5032623;27;97327;-78
2023/01/15 03:22:03;;;;;;;2.50;1.40;;;;;;;8.68;66.29;98961.94;5052526;27;97240;-78
2023/01/15 03:24:32;;;;;;;2.97;1.35;;;;;;;8.67;65.90;98941.94;5045827;27;101245;-79
2023/01/15 03:26:59;;;;;;;2.20;1.20;;;;;;;8.68;66.40;98929.69;5068353;27;97846;-78
2023/01/15 03:29:28;;;;;;;1.83;1.00;;;;;;;8.71;66.26;98929.56;5026641;27;96734;-78
2023/01/15 03:31:54;;;;;;;2.10;1.50;;;;;;;8.62;66.22;98936.06;5025188;27;96973;-78
2023/01/15 03:34:20;;;;;;;1.67;1.20;;;;;;;8.75;66.09;98962.47;5042231;27;97420;-78
2023/01/15 03:36:47;;;;;;;1.70;1.20;;;;;;;8.78;66.25;98949.25;5047771;27;101570;-78
2023/01/15 03:39:12;;;;;;;2.80;1.23;;;;;;;8.86;66.32;98951.50;5020752;27;97139;-78
2023/01/15 03:42:15;;;;;;;1.88;1.02;;;;;;;8.90;66.72;98945.19;5051417;27;97195;-78
2023/01/15 03:44:52;;;;;;;1.83;1.15;;;;;;;8.77;66.75;98932.72;5044831;27;101647;-78
2023/01/15 03:47:49;;;;;;;2.08;1.35;;;;;;;8.89;67.16;98949.56;5056084;27;100101;-78
2023/01/15 03:50:24;;;;;;;2.17;1.20;;;;;;;8.78;67.49;98936.16;5060341;27;96859;-78
2023/01/15 03:53:02;;;;;;;1.55;1.20;;;;;;;8.88;67.46;98945.28;5031114;27;96756;-78
2023/01/15 03:55:32;;;;;;;2.03;1.33;;;;;;;8.88;67.45;98947.06;5051197;27;100983;-78
2023/01/15 03:58:32;;;;;;;2.65;1.30;;;;;;;8.74;68.11;98911.94;5051235;27;101551;-78
2023/01/15 04:01:00;;;;;;;1.23;0.93;;;;;;;8.87;67.59;98933.09;5054783;27;96760;-78
2023/01/15 04:03:27;;;;;;;1.52;1.08;;;;;;;8.84;68.09;98938.47;5054961;27;96909;-78
2023/01/15 04:05:55;;;;;;;2.05;1.23;;;;;;;8.77;68.46;98930.09;5054233;27;101890;-78
2023/01/15 04:08:21;;;;;;;1.98;0.90;;;;;;;8.82;68.82;98930.72;5055505;27;97316;-78
2023/01/15 04:10:51;;;;;;;2.40;1.10;;;;;;;8.88;68.24;98937.44;5052879;27;97095;-78
2023/01/15 04:13:16;;;;;;;2.58;1.17;;;;;;;8.87;68.77;98937.50;5056181;27;96832;-78
2023/01/15 04:15:42;;;;;;;2.30;1.15;;;;;;;8.90;68.97;98948.69;5037342;27;102054;-78
2023/01/15 04:18:08;;;;;;;2.40;1.23;;;;;;;8.93;68.77;98918.88;5051873;27;101775;-78
2023/01/15 04:20:34;;;;;;;2.65;1.48;;;;;;;8.96;69.49;98926.56;5054033;27;98649;-78
2023/01/15 04:23:00;;;;;;;3.30;1.55;;;;;;;8.94;69.93;98917.97;5054943;27;98404;-78
2023/01/15 04:25:25;;;;;;;1.40;1.13;;;;;;;8.98;70.35;98906.41;5071958;27;98076;-79
2023/01/15 04:27:53;;;;;;;2.38;1.23;;;;;;;8.93;71.25;98911.88;5050953;27;100925;-78
2023/01/15 04:30:19;;;;;;;2.38;1.23;;;;;;;8.93;70.97;98924.97;5057064;27;96750;-78
2023/01/15 04:32:47;;;;;;;1.95;1.20;;;;;;;8.84;71.86;98921.03;5043245;27;96914;-78
2023/01/15 04:35:13;;;;;;;1.55;1.40;;;;;;;8.80;72.34;98905.56;5034268;27;101582;-79
2023/01/15 04:37:38;;;;;;;1.40;1.02;;;;;;;8.82;72.09;98904.56;5041613;27;100966;-78
2023/01/15 04:40:05;;;;;;;4.10;1.30;;;;;;;8.81;72.41;98908.09;5033287;27;96692;-78
2023/01/15 04:45:14;;;;;;;2.42;1.10;;;;;;;8.67;72.56;98883.50;5055085;27;100860;-78
2023/01/15 04:47:40;;;;;;;1.95;1.10;;;;;;;8.73;73.51;98902.41;5034350;27;101968;-78
2023/01/15 04:50:06;;;;;;;1.40;1.13;;;;;;;8.72;73.82;98884.13;5036031;27;97081;-79
2023/01/15 04:52:32;;;;;;;1.98;1.40;;;;;;;8.65;74.00;98881.00;5031089;27;96762;-79
2023/01/15 04:54:57;;;;;;;2.00;1.48;;;;;;;8.65;74.12;98873.13;5034971;27;101332;-78
2023/01/15 04:57:23;;;;;;;2.53;1.25;;;;;;;8.66;74.15;98881.84;5071842;27;101410;-78
2023/01/15 04:59:48;;;;;;;1.63;1.27;;;;;;;8.68;74.40;98866.91;5050486;27;96756;-78
2023/01/15 05:02:14;;;;;;;2.63;1.15;;;;;;;8.66;74.21;98871.38;5038881;27;96713;-79
2023/01/15 05:04:40;;;;;;;2.42;1.52;;;;;;;8.65;74.35;98873.13;4996923;27;101528;-78
2023/01/15 05:07:05;;;;;;;1.35;1.10;;;;;;;8.67;73.98;98857.34;4987562;27;102087;-78
2023/01/15 05:09:31;;;;;;;2.33;1.00;;;;;;;8.52;74.13;98851.97;5016669;27;96908;-78
2023/01/15 05:11:57;;;;;;;1.50;1.38;;;;;;;8.59;73.61;98866.44;5016674;27;97077;-79
2023/01/15 05:14:22;;;;;;;1.50;1.10;;;;;;;8.68;73.77;98859.06;5052536;27;97555;-79
2023/01/15 05:16:48;;;;;;;1.40;1.10;;;;;;;8.65;73.39;98846.97;4995916;27;101096;-78
2023/01/15 05:19:13;;;;;;;2.22;1.30;;;;;;;8.65;73.54;98857.44;5012631;27;97165;-79
2023/01/15 05:21:40;;;;;;;2.08;1.38;;;;;;;8.64;73.33;98847.91;5014004;27;97108;-78
2023/01/15 05:24:07;;;;;;;1.50;1.00;;;;;;;8.68;73.25;98849.44;5000111;27;99671;-78
2023/01/15 05:26:34;;;;;;;2.25;1.42;;;;;;;8.68;73.04;98856.44;5013306;28;101781;-78
2023/01/15 05:29:00;;;;;;;3.15;1.40;;;;;;;8.65;73.02;98862.69;4988291;28;98289;-78
2023/01/15 05:31:26;;;;;;;1.67;1.30;;;;;;;8.71;72.58;98851.06;5018348;28;97172;-78
2023/01/15 05:33:53;;;;;;;1.90;1.40;;;;;;;8.71;72.56;98851.06;4996163;27;101213;-78
2023/01/15 05:36:25;;;;;;;2.33;1.50;;;;;;;8.73;72.55;98850.06;5005871;27;97563;-79
2023/01/15 05:38:51;;;;;;;2.17;1.52;;;;;;;8.72;72.74;98844.91;5001363;27;98020;-78
2023/01/15 05:44:05;;;;;;;3.75;1.52;;;;;;;8.54;73.37;98823.97;5018774;27;101287;-79
2023/01/15 05:46:33;;;;;;;2.03;1.60;;;;;;;8.69;73.00;98845.91;5008842;28;101633;-78
2023/01/15 05:49:00;;;;;;;2.20;1.60;;;;;;;8.60;73.46;98838.50;5008061;27;97032;-78
2023/01/15 07:16:55;;;;;;;2.22;1.30;;;;;;;8.57;76.92;98829.03;6134488;23;97305;-80
2023/01/15 07:19:21;;;;;;;3.15;1.63;;;;;;;8.64;76.28;98842.69;6054238;23;97047;-80
2023/01/15 07:21:47;;;;;;;2.50;1.60;;;;;;;8.72;76.26;98837.88;6078065;23;101578;-79
2023/01/15 07:24:13;;;;;;;1.45;1.23;;;;;;;8.66;74.87;98834.75;6078496;23;100972;-79
2023/01/15 07:26:40;;;;;;;3.03;1.30;;;;;;;8.76;74.35;98834.22;6103409;23;96613;-79
2023/01/15 07:29:05;;;;;;;3.50;2.10;;;;;;;8.76;74.19;98828.97;6078487;23;96831;-79
2023/01/15 07:31:31;;;;;;;2.35;1.17;;;;;;;8.83;73.30;98842.59;6053922;23;100673;-79
2023/01/15 07:33:57;;;;;;;2.65;1.70;;;;;;;8.82;72.40;98835.69;6053260;23;100637;-80
2023/01/15 07:36:23;;;;;;;3.60;1.60;;;;;;;8.89;72.00;98849.28;6078503;23;96696;-78
2023/01/15 07:38:49;;;;;;;2.92;1.67;;;;;;;8.88;71.42;98839.75;6078519;23;97018;-78
2023/01/15 07:49:45;;;;;;;2.55;1.83;;;;;;;8.98;69.79;98833.13;6107731;23;97246;-75
2023/01/15 07:52:16;;;;;;;2.97;2.20;;;;;;;8.91;69.85;98803.81;6053903;23;99649;-76
2023/01/15 07:54:43;;;;;;;2.65;1.80;;;;;;;8.99;69.50;98819.13;6076166;23;98288;-75
2023/01/15 07:57:09;;;;;;;2.58;1.55;;;;;;;8.99;69.40;98817.34;6076631;23;97262;-75
2023/01/15 07:59:34;;;;;;;2.17;1.50;;;;;;;8.98;68.63;98810.41;6076984;23;97035;-79
2023/01/15 08:02:00;;;;;;;2.97;2.05;;;;;;;8.99;68.73;98814.75;6050525;23;100785;-80
2023/01/15 08:04:26;;;;;;;3.30;2.10;;;;;;;8.99;68.49;98819.13;6074763;23;97703;-79
2023/01/15 08:06:51;;;;;;;3.38;2.08;;;;;;;8.93;68.61;98814.19;6051355;23;97105;-79
2023/01/15 08:09:17;;;;;;;2.92;2.50;;;;;;;8.95;68.02;98801.88;6073296;23;97396;-80
2023/01/15 08:17:10;;;;;;;2.88;2.10;;;;;;;8.91;67.75;98806.44;6075090;23;97101;-80
2023/01/15 08:19:36;;;;;;;3.13;2.42;;;;;;;8.89;67.26;98792.56;6094190;23;97184;-79
2023/01/15 08:22:02;;;;;;;4.03;2.35;;;;;;;8.90;67.23;98817.81;6068251;23;101723;-79
2023/01/15 08:24:28;;;;;;;2.90;2.22;;;;;;;8.86;67.83;98811.03;6093455;23;97258;-80
2023/01/15 08:26:54;;;;;;;3.17;2.28;;;;;;;8.92;66.97;98813.34;6093133;23;97207;-79
2023/01/15 08:29:20;;;;;;;3.85;2.00;;;;;;;8.87;66.23;98801.41;6044745;23;96992;-79
2023/01/15 08:31:46;;;;;;;3.60;2.42;;;;;;;8.90;67.08;98796.03;6043773;23;101293;-79
2023/01/15 08:34:11;;;;;;;3.10;2.08;;;;;;;8.94;67.17;98806.25;6068155;23;100916;-80
2023/01/15 08:36:37;;;;;;;2.83;2.10;;;;;;;8.94;66.45;98787.09;6094087;23;97278;-79
2023/01/15 08:39:03;;;;;;;3.88;2.33;;;;;;;9.03;66.23;98791.84;6042286;23;97591;-80
2023/01/15 08:41:29;;;;;;;4.18;2.35;;;;;;;8.96;65.97;98780.00;6043408;23;101111;-79
2023/01/15 08:43:54;;;;;;;4.38;2.53;;;;;;;8.95;65.77;98786.16;6067142;23;100995;-80
2023/01/15 08:46:20;;;;;;;4.50;2.38;;;;;;;8.96;66.13;98804.44;6068302;23;97129;-79
2023/01/15 08:48:47;;;;;;;3.10;2.58;;;;;;;8.96;65.58;98814.03;6067236;23;96893;-82
2023/01/15 08:51:12;;;;;;;2.85;2.28;;;;;;;8.97;65.72;98816.56;6043159;23;101370;-81
2023/01/15 08:53:38;;;;;;;3.67;2.50;;;;;;;8.96;66.22;98816.63;6067899;23;101846;-81
2023/01/15 08:56:14;;;;;;;4.25;2.13;;;;;;;8.96;65.69;98808.78;6067768;23;97089;-82
2023/01/15 08:58:40;;;;;;;4.30;2.70;;;;;;;8.93;65.34;98811.56;6069940;23;97167;-83
2023/01/15 09:01:08;;;;;;;3.67;2.40;;;;;;;8.85;66.02;98798.88;6070847;23;100995;-80
2023/01/15 09:03:35;;;;;;;2.58;2.03;;;;;;;8.89;65.55;98802.19;6047743;23;101399;-79
2023/01/15 09:06:01;;;;;;;5.38;2.30;;;;;;;8.90;65.44;98799.50;6047151;23;96830;-79
2023/01/15 09:08:27;;;;;;;2.90;2.08;;;;;;;8.94;65.48;98808.03;6071613;23;96836;-80
2023/01/15 09:11:00;;;;;;;3.42;2.60;;;;;;;8.93;65.51;98838.59;6071161;23;101753;-82
2023/01/15 09:13:27;;;;;;;3.05;2.20;;;;;;;8.97;65.30;98810.50;6096119;23;101175;-84
2023/01/15 09:15:53;;;;;;;2.67;2.08;;;;;;;8.84;65.32;98792.81;6071656;23;97077;-79
2023/01/15 09:18:19;;;;;;;3.58;2.15;;;;;;;8.89;65.65;98782.09;6096419;23;97377;-84
2023/01/15 09:20:46;;;;;;;2.50;2.10;;;;;;;8.85;65.24;98767.50;6047141;23;100778;-81
2023/01/15 09:23:11;;;;;;;5.38;2.40;;;;;;;8.99;65.36;98777.25;6045696;23;101447;-78
2023/01/15 09:25:37;;;;;;;2.47;2.05;;;;;;;8.84;65.54;98760.53;6071583;23;97209;-81
2023/01/15 09:28:02;;;;;;;3.22;2.10;;;;;;;8.98;65.50;98793.88;6070887;23;97066;-87
2023/01/15 09:30:28;;;;;;;3.20;2.10;;;;;;;9.02;65.14;98793.63;6069634;23;98013;-83
2023/01/15 09:32:54;;;;;;;3.47;2.17;;;;;;;9.08;65.25;98779.38;6068453;23;101178;-84
2023/01/15 09:35:21;;;;;;;3.50;2.45;;;;;;;9.10;65.11;98780.13;6045275;23;97128;-83
2023/01/15 09:37:53;;;;;;;2.95;2.20;;;;;;;9.00;65.40;98773.69;6070000;23;97264;-83
2023/01/15 09:40:59;;;;;;;2.40;1.90;;;;;;;9.10;65.07;98787.97;6043997;23;102198;-83
2023/01/15 09:43:41;;;;;;;2.88;1.90;;;;;;;9.14;65.02;98797.38;6064090;23;101013;-83
2023/01/15 09:46:14;;;;;;;3.08;2.20;;;;;;;9.15;64.56;98790.38;6043978;23;97068;-83
2023/01/15 09:49:07;;;;;;;2.88;2.33;;;;;;;9.12;64.53;98773.06;6069182;23;96985;-84
2023/01/15 09:51:53;;;;;;;2.80;1.95;;;;;;;9.14;64.99;98759.91;6093472;23;97602;-82
2023/01/15 09:54:27;;;;;;;3.17;1.92;;;;;;;9.05;64.56;98751.59;6068926;23;100696;-83
2023/01/15 09:56:53;;;;;;;2.65;2.00;;;;;;;9.13;64.24;98772.13;6067671;23;97159;-83
2023/01/15 09:59:39;;;;;;;4.57;2.90;;;;;;;9.12;63.99;98767.81;6093269;23;97372;-83
2023/01/15 10:02:33;;;;;;;4.00;2.30;;;;;;;9.13;64.09;98779.97;6043300;23;101163;-84
2023/01/15 10:05:16;;;;;;;2.97;2.13;;;;;;;9.12;64.05;98761.75;6042812;23;101315;-82
2023/01/15 10:07:50;;;;;;;3.53;2.33;;;;;;;9.15;63.66;98762.41;6044261;23;96891;-77
2023/01/15 10:10:19;;;;;;;3.13;2.03;;;;;;;9.17;63.89;98762.34;6045821;23;96748;-77
2023/01/15 10:12:47;;;;;;;4.03;2.53;;;;;;;9.07;63.74;98751.50;6094767;23;98938;-83
2023/01/15 10:15:12;;;;;;;3.58;2.40;;;;;;;9.10;63.40;98772.28;6069540;23;99998;-77
2023/01/15 10:17:42;;;;;;;2.75;2.10;;;;;;;9.11;64.05;98765.28;6093193;23;96686;-84
2023/01/15 10:20:32;;;;;;;3.42;2.00;;;;;;;9.03;64.32;98757.84;6092213;23;97211;-84
2023/01/15 10:23:14;;;;;;;4.70;2.28;;;;;;;9.03;64.07;98765.69;6046351;23;101387;-82
2023/01/15 10:25:48;;;;;;;3.83;2.45;;;;;;;8.96;64.07;98756.44;6044285;23;101369;-81
2023/01/15 10:28:44;;;;;;;3.70;2.20;;;;;;;9.03;64.61;98755.22;6092195;23;96602;-81
2023/01/15 10:31:19;;;;;;;4.35;2.38;;;;;;;9.04;64.25;98757.72;6068440;23;96621;-81
2023/01/15 10:34:00;;;;;;;3.60;1.98;;;;;;;9.04;64.55;98765.59;6091666;23;97564;-81
2023/01/15 10:36:39;;;;;;;3.38;2.40;;;;;;;9.00;64.62;98745.75;6092134;23;98413;-82
2023/01/15 10:39:32;;;;;;;3.70;2.45;;;;;;;9.02;64.45;98751.75;6042483;23;97280;-82
2023/01/15 10:42:25;;;;;;;4.45;2.83;;;;;;;9.06;64.75;98755.06;6040504;23;97566;-82
2023/01/15 10:45:20;;;;;;;3.38;2.50;;;;;;;9.12;64.35;98751.28;6090239;23;99550;-81
2023/01/15 10:47:51;;;;;;;5.70;2.35;;;;;;;9.05;63.96;98730.66;6066083;23;101176;-85
2023/01/15 10:50:21;;;;;;;3.87;2.30;;;;;;;9.09;64.65;98728.72;6091979;23;96875;-80
2023/01/15 10:53:08;;;;;;;4.57;3.40;;;;;;;9.23;64.21;98755.00;6044334;23;97260;-82
2023/01/15 10:55:44;;;;;;;3.28;2.33;;;;;;;9.20;64.19;98747.31;6093040;23;97653;-81
2023/01/15 10:58:39;;;;;;;3.65;2.40;;;;;;;9.23;63.61;98723.59;6091672;23;97811;-84
2023/01/15 11:01:10;;;;;;;4.90;2.97;;;;;;;9.26;64.24;98720.81;6071957;23;96655;-85
2023/01/15 11:03:38;;;;;;;4.43;3.15;;;;;;;9.20;63.38;98717.69;6072059;23;96720;-80
2023/01/15 11:06:07;;;;;;;4.45;2.42;;;;;;;9.29;63.09;98733.72;6046289;23;101439;-80
2023/01/15 11:08:33;;;;;;;4.57;2.30;;;;;;;9.25;63.38;98734.84;6094979;23;98309;-83
2023/01/15 11:19:54;;;;;;;6.18;3.65;;;;;;;9.32;63.18;98714.38;6072601;23;99497;-81
2023/01/15 11:22:19;;;;;;;3.80;2.60;;;;;;;9.39;63.07;98714.88;6070568;23;96879;-81
2023/01/15 11:24:50;;;;;;;4.70;2.50;;;;;;;9.23;63.08;98681.69;6071342;23;97084;-81
2023/01/15 11:27:19;;;;;;;5.03;3.17;;;;;;;9.36;63.08;98697.56;6070393;23;97462;-82
2023/01/15 11:29:49;;;;;;;4.50;3.00;;;;;;;9.32;62.89;98695.22;6094410;23;98085;-80
2023/01/15 11:32:19;;;;;;;4.03;2.70;;;;;;;9.37;63.52;98714.16;6045735;23;96775;-81
2023/01/15 11:34:58;;;;;;;8.48;4.80;;;;;;;9.49;62.72;98732.66;6045730;23;97334;-81
2023/01/15 11:37:24;;;;;;;11.95;6.13;;;;;;;9.48;63.44;98730.97;6045100;23;101289;-80
2023/01/15 11:40:04;;;;;;;5.88;3.58;;;;;;;9.49;62.63;98731.81;6069011;23;101788;-82
2023/01/15 11:51:09;;;;;;;11.27;6.50;;;;;;;9.57;62.98;98752.31;6067895;23;97483;-79
2023/01/15 11:53:45;;;;;;;11.98;5.45;;;;;;;9.62;62.95;98760.78;6044294;23;97203;-79
2023/01/15 11:56:18;;;;;;;9.75;5.35;;;;;;;9.63;63.18;98758.09;6067961;23;97219;-83
2023/01/15 11:58:46;;;;;;;10.70;5.63;;;;;;;9.59;62.95;98751.31;6070420;23;100013;-81
2023/01/15 12:01:16;;;;;;;7.30;4.28;;;;;;;9.66;62.58;98757.94;6071345;23;101633;-82
2023/01/15 12:03:41;;;;;;;8.70;4.93;;;;;;;9.71;62.68;98773.38;6072101;23;97235;-79
2023/01/15 12:06:10;;;;;;;13.68;5.53;;;;;;;9.67;63.06;98779.72;6072264;23;97088;-80
2023/01/15 12:08:46;;;;;;;9.02;4.55;;;;;;;9.66;63.29;98789.38;6047301;23;100905;-81
2023/01/15 12:11:33;;;;;;;10.00;4.55;;;;;;;9.72;63.13;98777.72;6123080;23;97449;-80
2023/01/15 12:14:20;;;;;;;6.90;3.80;;;;;;;9.72;63.22;98778.56;6097232;23;97044;-81
2023/01/15 12:17:24;;;;;;;4.53;3.20;;;;;;;9.78;62.67;98784.38;6072925;23;97088;-84
2023/01/15 12:20:14;;;;;;;7.38;4.43;;;;;;;9.78;62.88;98782.59;6062624;23;99236;-85
2023/01/15 12:23:02;;;;;;;8.63;3.95;;;;;;;9.75;62.73;98785.41;6096308;23;100307;-79
2023/01/15 12:25:47;;;;;;;15.15;7.18;;;;;;;9.76;62.92;98794.94;6095445;23;97068;-82
2023/01/15 12:28:15;;;;;;;7.18;3.72;;;;;;;9.83;63.25;98803.31;6066412;23;97383;-88
2023/01/15 12:30:47;;;;;;;5.40;3.60;;;;;;;9.84;63.22;98805.00;6067951;23;101347;-85
2023/01/15 12:33:42;;;;;;;4.32;2.92;;;;;;;9.83;63.03;98830.38;6070656;23;101055;-83
2023/01/15 12:36:15;;;;;;;5.45;3.17;;;;;;;9.73;63.51;98811.66;6059234;23;97074;-81
2023/01/15 12:38:44;;;;;;;3.10;2.13;;;;;;;9.84;63.74;98842.53;6067417;23;97334;-80
2023/01/15 12:41:20;;;;;;;3.33;2.20;;;;;;;9.83;64.27;98837.38;6119163;23;98631;-80
2023/01/15 12:46:39;;;;;;;3.45;2.30;;;;;;;9.80;64.32;98867.22;6071618;23;96978;-83
2023/01/15 12:49:23;;;;;;;2.65;1.55;;;;;;;9.70;64.25;98853.75;6042753;23;97387;-83
2023/01/15 12:52:24;;;;;;;1.60;1.10;;;;;;;9.78;64.17;98876.09;6068419;23;101360;-83
2023/01/15 12:55:09;;;;;;;2.28;1.35;;;;;;;9.73;63.95;98887.66;6063711;23;99387;-83
2023/01/15 12:57:36;;;;;;;2.20;1.25;;;;;;;9.69;63.99;98880.06;6044301;23;97236;-83
2023/01/15 13:00:16;;;;;;;3.83;2.30;;;;;;;9.69;64.08;98877.44;6068104;23;96814;-83
2023/01/15 13:02:57;;;;;;;4.55;1.60;;;;;;;9.64;64.23;98876.84;6087809;23;101248;-84
2023/01/15 13:05:46;;;;;;;1.45;1.00;;;;;;;9.63;64.69;98891.72;6089220;23;101492;-83
2023/01/15 13:08:37;;;;;;;2.05;1.10;;;;;;;9.60;64.53;98891.00;6042130;23;96641;-84
2023/01/15 13:11:03;;;;;;;2.38;1.20;;;;;;;9.55;64.90;98906.97;6041259;23;96829;-84
2023/01/15 13:13:31;;;;;;;1.48;1.00;;;;;;;9.42;65.58;98884.97;6040063;23;101140;-83
2023/01/15 13:16:04;;;;;;;2.17;1.05;;;;;;;9.38;65.96;98883.44;6041303;23;101610;-80
2023/01/15 13:18:48;;;;;;;2.47;1.13;;;;;;;9.37;66.61;98894.84;6094089;23;97248;-81
2023/01/15 13:21:16;;;;;;;3.30;1.77;;;;;;;9.45;66.41;98906.63;6041792;23;97343;-78
2023/01/15 13:23:48;;;;;;;2.03;1.23;;;;;;;9.45;66.44;98917.09;6040293;23;101449;-78
2023/01/15 13:26:29;;;;;;;2.35;1.42;;;;;;;9.43;66.96;98939.06;6066675;23;99996;-78
2023/01/15 13:29:14;;;;;;;4.63;2.28;;;;;;;9.41;67.37;98935.66;6091396;23;97050;-80
2023/01/15 13:31:45;;;;;;;2.30;1.42;;;;;;;9.37;67.07;98928.91;6044074;23;96924;-78
2023/01/15 13:34:28;;;;;;;1.98;1.55;;;;;;;9.38;66.99;98920.94;6117293;23;97773;-77
2023/01/15 13:37:03;;;;;;;3.55;1.50;;;;;;;9.23;67.77;98901.63;6043497;23;100803;-80
2023/01/15 13:39:36;;;;;;;2.53;1.52;;;;;;;9.33;67.29;98932.59;6065826;23;97298;-78
2023/01/15 13:44:50;;;;;;;1.75;1.02;;;;;;;9.32;67.36;98933.50;6068677;23;101430;-79
2023/01/15 13:47:29;;;;;;;2.03;1.45;;;;;;;9.27;67.76;98929.34;6064846;23;101222;-78
2023/01/15 13:50:04;;;;;;;2.45;1.30;;;;;;;9.28;67.32;98944.16;6064423;23;97317;-79
2023/01/15 13:52:35;;;;;;;2.60;1.60;;;;;;;9.26;67.30;98947.75;6089291;23;97352;-78
2023/01/15 13:55:28;;;;;;;1.85;1.15;;;;;;;9.26;67.52;98958.25;6037325;23;101821;-79
2023/01/15 13:57:54;;;;;;;1.88;1.48;;;;;;;9.16;67.76;98949.13;6039780;23;100996;-80
2023/01/15 14:00:39;;;;;;;2.92;1.77;;;;;;;9.20;67.44;98961.16;6066200;23;96778;-77
2023/01/15 14:03:33;;;;;;;2.53;1.50;;;;;;;9.22;67.12;98985.47;6041147;23;96854;-78
2023/01/15 14:06:07;;;;;;;2.05;1.38;;;;;;;9.20;67.54;98989.97;6063891;23;98484;-78
2023/01/15 14:08:42;;;;;;;2.47;1.52;;;;;;;9.02;67.09;98976.84;6089827;23;98501;-77
2023/01/15 14:11:32;;;;;;;2.50;1.55;;;;;;;9.19;67.29;99003.97;6066693;23;97083;-79